Time;durP1;ratioP1;P1;durP2;ratioP2;P2;SDS_P1;SDS_P2;PMS_P1;PMS_P2;Temp;Humidity;BMP_temperature;BMP_pressure;BME280_temperature;BME280_humidity;BME280_pressure;Samples;Min_cycle;Max_cycle;Signal;HPM_P1;HPM_P2
2021/04/25 00:01:06;;;;;;;12.80;7.57;;;7.00;80.70;;;;;;4912768;29;20115;-67
2021/04/25 00:03:32;;;;;;;12.60;7.10;;;7.00;80.90;;;;;;4913606;29;20119;-67
2021/04/25 00:05:57;;;;;;;10.60;6.88;;;7.00;80.90;;;;;;4914537;29;20040;-68
2021/04/25 00:08:23;;;;;;;14.73;7.43;;;7.00;81.00;;;;;;4912870;29;20392;-66
2021/04/25 00:10:49;;;;;;;13.60;6.35;;;7.00;81.00;;;;;;4913143;29;20087;-67
2021/04/25 00:13:14;;;;;;;13.75;7.60;;;7.10;81.00;;;;;;4914696;29;20358;-67
2021/04/25 00:15:40;;;;;;;10.32;7.20;;;7.00;81.00;;;;;;4913835;29;20434;-68
2021/04/25 00:18:07;;;;;;;13.10;7.13;;;7.10;81.00;;;;;;4914635;29;20481;-67
2021/04/25 00:20:32;;;;;;;10.57;7.05;;;7.10;81.00;;;;;;4914660;29;20032;-67
2021/04/25 00:22:58;;;;;;;14.13;6.90;;;7.10;81.00;;;;;;4913538;29;20024;-64
2021/04/25 00:25:24;;;;;;;12.30;7.25;;;7.20;80.80;;;;;;4913365;29;20378;-66
2021/04/25 00:27:50;;;;;;;13.45;7.25;;;7.20;80.70;;;;;;4913989;29;20043;-65
2021/04/25 00:30:20;;;;;;;11.55;6.95;;;7.30;80.50;;;;;;4914026;29;20107;-66
2021/04/25 00:32:46;;;;;;;12.57;6.57;;;7.30;80.50;;;;;;4914080;29;20056;-69
2021/04/25 00:35:13;;;;;;;11.68;6.45;;;7.20;80.20;;;;;;4914522;29;20020;-66
2021/04/25 00:37:38;;;;;;;11.73;6.93;;;7.20;79.90;;;;;;4913626;29;20115;-66
2021/04/25 00:40:07;;;;;;;12.40;7.05;;;7.10;80.10;;;;;;4914228;29;20107;-67
2021/04/25 00:42:32;;;;;;;9.63;6.57;;;7.10;80.40;;;;;;4914186;29;20473;-67
2021/04/25 00:45:00;;;;;;;18.58;7.32;;;7.10;80.60;;;;;;4913519;29;20040;-65
2021/04/25 00:47:26;;;;;;;10.38;7.13;;;7.00;80.60;;;;;;4914289;29;20036;-64
2021/04/25 00:49:51;;;;;;;9.90;6.53;;;6.90;80.70;;;;;;4914015;29;20460;-65
2021/04/25 00:52:18;;;;;;;12.73;7.35;;;6.80;81.00;;;;;;4913872;29;20028;-68
2021/04/25 00:54:44;;;;;;;12.55;7.15;;;6.70;81.30;;;;;;4915451;29;20028;-66
2021/04/25 00:57:14;;;;;;;10.77;6.68;;;6.60;81.70;;;;;;4917861;29;20392;-67
2021/04/25 00:59:43;;;;;;;14.45;6.75;;;6.50;82.10;;;;;;4917790;29;20052;-66
2021/04/25 01:02:10;;;;;;;9.77;6.53;;;6.40;82.50;;;;;;4917996;29;20512;-69
2021/04/25 01:04:36;;;;;;;9.63;5.45;;;6.30;82.80;;;;;;4917680;29;20028;-68
2021/04/25 01:07:03;;;;;;;11.57;6.97;;;6.20;82.80;;;;;;4917562;29;20577;-67
2021/04/25 01:09:30;;;;;;;11.75;6.10;;;6.20;83.00;;;;;;4916674;29;20032;-67
2021/04/25 01:11:55;;;;;;;10.50;5.82;;;6.10;83.10;;;;;;4916839;29;20035;-70
2021/04/25 01:14:22;;;;;;;12.32;6.03;;;6.00;83.30;;;;;;4916641;29;20025;-68
2021/04/25 01:16:47;;;;;;;13.27;7.85;;;6.00;83.40;;;;;;4917422;29;20045;-69
2021/04/25 01:19:13;;;;;;;12.45;5.93;;;5.90;83.50;;;;;;4917141;29;20400;-67
2021/04/25 01:21:39;;;;;;;8.77;6.03;;;5.90;83.40;;;;;;4917661;29;20465;-67
2021/04/25 01:24:05;;;;;;;16.38;5.80;;;5.80;83.40;;;;;;4917577;29;20099;-68
2021/04/25 01:26:31;;;;;;;9.00;6.32;;;5.80;83.50;;;;;;4915619;29;20125;-67
2021/04/25 01:28:56;;;;;;;9.35;5.80;;;5.70;83.50;;;;;;4917104;29;20040;-71
2021/04/25 01:31:22;;;;;;;11.07;5.93;;;5.70;83.40;;;;;;4917650;29;20028;-66
2021/04/25 01:33:48;;;;;;;12.63;5.25;;;5.70;83.50;;;;;;4916621;29;20079;-67
2021/04/25 01:36:13;;;;;;;14.38;5.85;;;5.60;83.30;;;;;;4917629;29;20024;-66
2021/04/25 01:38:39;;;;;;;9.35;5.35;;;5.60;83.40;;;;;;4917306;29;20385;-71
2021/04/25 01:41:04;;;;;;;11.15;5.47;;;5.50;83.20;;;;;;4916690;29;20496;-72
2021/04/25 01:43:30;;;;;;;12.07;5.90;;;5.50;83.20;;;;;;4917293;29;20119;-72
2021/04/25 01:45:56;;;;;;;9.85;5.22;;;5.40;83.20;;;;;;4917051;29;20976;-72
2021/04/25 01:48:21;;;;;;;8.88;4.88;;;5.40;83.10;;;;;;4915429;29;20032;-67
2021/04/25 01:50:47;;;;;;;10.82;5.43;;;5.40;83.10;;;;;;4916730;29;20039;-73
2021/04/25 01:53:13;;;;;;;8.07;4.70;;;5.50;83.20;;;;;;4915911;29;20020;-71
2021/04/25 01:55:40;;;;;;;11.88;5.30;;;5.50;82.90;;;;;;4915373;29;20465;-67
2021/04/25 01:58:06;;;;;;;7.03;4.68;;;5.50;82.40;;;;;;4915487;29;20103;-66
2021/04/25 02:00:39;;;;;;;8.60;4.40;;;5.60;82.00;;;;;;4916332;29;20052;-66
2021/04/25 02:03:06;;;;;;;10.75;4.90;;;5.60;81.90;;;;;;4916981;29;20032;-65
2021/04/25 02:05:32;;;;;;;8.25;4.70;;;5.60;81.50;;;;;;4916149;29;20028;-65
2021/04/25 02:07:58;;;;;;;8.40;4.80;;;5.60;81.40;;;;;;4915669;29;20047;-66
2021/04/25 02:10:24;;;;;;;13.77;5.00;;;5.60;81.30;;;;;;4916823;29;20021;-66
2021/04/25 02:12:51;;;;;;;9.93;4.57;;;5.60;81.20;;;;;;4916352;29;20036;-65
2021/04/25 02:15:18;;;;;;;7.05;4.53;;;5.60;81.00;;;;;;4916368;29;20029;-65
2021/04/25 02:17:44;;;;;;;9.00;4.78;;;5.60;81.00;;;;;;4916584;29;20520;-65
2021/04/25 02:20:12;;;;;;;6.60;4.53;;;5.60;81.00;;;;;;4915849;29;20028;-65
2021/04/25 02:22:38;;;;;;;11.07;4.63;;;5.50;80.70;;;;;;4915985;29;20024;-65
2021/04/25 02:25:05;;;;;;;8.18;4.22;;;5.50;80.90;;;;;;4916351;29;20380;-66
2021/04/25 02:27:32;;;;;;;9.63;5.03;;;5.50;81.00;;;;;;4916269;29;20043;-65
2021/04/25 02:29:58;;;;;;;9.73;4.25;;;5.50;80.90;;;;;;4914361;29;20026;-65
2021/04/25 02:32:23;;;;;;;8.40;4.28;;;5.40;81.00;;;;;;4916674;29;20028;-65
2021/04/25 02:34:49;;;;;;;10.43;4.53;;;5.40;81.10;;;;;;4916008;29;20024;-66
2021/04/25 02:37:14;;;;;;;12.15;4.85;;;5.30;81.10;;;;;;4915960;29;20044;-65
2021/04/25 02:39:40;;;;;;;9.52;4.43;;;5.30;81.00;;;;;;4916163;29;20047;-66
2021/04/25 02:42:06;;;;;;;9.63;4.50;;;5.30;80.70;;;;;;4916264;29;20500;-66
2021/04/25 02:44:31;;;;;;;11.82;4.60;;;5.20;80.40;;;;;;4915815;29;20122;-65
2021/04/25 02:46:57;;;;;;;7.78;4.55;;;5.20;80.50;;;;;;4915876;29;20070;-65
2021/04/25 02:49:22;;;;;;;7.32;4.43;;;5.20;80.40;;;;;;4916105;29;20422;-67
2021/04/25 02:51:48;;;;;;;8.23;4.40;;;5.20;80.50;;;;;;4913835;29;20141;-67
2021/04/25 02:54:14;;;;;;;8.43;4.18;;;5.20;80.60;;;;;;4916156;29;20024;-67
2021/04/25 02:56:40;;;;;;;10.70;4.10;;;5.30;80.60;;;;;;4914745;29;20016;-66
2021/04/25 02:59:05;;;;;;;11.95;4.45;;;5.30;80.30;;;;;;4913893;29;20523;-68
2021/04/25 03:01:31;;;;;;;9.90;4.88;;;5.40;79.80;;;;;;4914585;29;20040;-66
2021/04/25 03:03:57;;;;;;;7.57;4.10;;;5.40;80.00;;;;;;4915121;29;20493;-66
2021/04/25 03:06:22;;;;;;;9.13;4.57;;;5.40;79.80;;;;;;4915967;29;20086;-66
2021/04/25 03:08:48;;;;;;;9.98;4.43;;;5.40;79.40;;;;;;4913972;29;20048;-66
2021/04/25 03:11:13;;;;;;;9.82;4.57;;;5.40;79.20;;;;;;4914153;29;20031;-66
2021/04/25 03:13:40;;;;;;;9.30;4.43;;;5.50;79.20;;;;;;4915655;29;20144;-68
2021/04/25 03:16:06;;;;;;;9.70;4.82;;;5.60;79.00;;;;;;4915592;29;20100;-67
2021/04/25 03:18:32;;;;;;;8.65;3.97;;;5.60;78.80;;;;;;4914752;29;20502;-70
2021/04/25 03:20:57;;;;;;;10.80;4.70;;;5.60;78.10;;;;;;4915228;29;20043;-67
2021/04/25 03:23:23;;;;;;;6.18;3.83;;;5.70;78.20;;;;;;4915588;29;20484;-70
2021/04/25 03:25:49;;;;;;;12.07;4.97;;;5.70;78.00;;;;;;4897867;29;20032;-66
2021/04/25 03:28:15;;;;;;;8.20;3.63;;;5.80;77.90;;;;;;4914170;29;20111;-66
2021/04/25 03:30:40;;;;;;;10.05;4.20;;;5.90;78.10;;;;;;4914070;29;20492;-67
2021/04/25 03:33:06;;;;;;;6.93;3.95;;;5.90;77.40;;;;;;4914693;29;20111;-69
2021/04/25 03:35:32;;;;;;;7.35;4.45;;;5.90;77.40;;;;;;4915393;29;20107;-70
2021/04/25 03:37:58;;;;;;;7.35;4.07;;;6.00;76.80;;;;;;4914970;29;20111;-71
2021/04/25 03:40:23;;;;;;;6.68;3.85;;;5.90;76.60;;;;;;4914650;29;20051;-65
2021/04/25 03:42:49;;;;;;;8.38;3.75;;;5.90;76.90;;;;;;4914854;29;20028;-69
2021/04/25 03:45:16;;;;;;;14.70;3.70;;;5.90;76.70;;;;;;4915177;29;20429;-71
2021/04/25 03:47:50;;;;;;;9.57;3.78;;;6.00;76.60;;;;;;4914361;29;20052;-71
2021/04/25 03:50:17;;;;;;;7.75;3.70;;;6.00;76.90;;;;;;4915166;29;20528;-69
2021/04/25 03:52:45;;;;;;;7.50;3.15;;;6.00;76.50;;;;;;4914913;29;20024;-70
2021/04/25 03:55:14;;;;;;;6.80;3.25;;;6.10;76.30;;;;;;4914383;29;20036;-66
2021/04/25 03:57:41;;;;;;;9.20;4.03;;;6.10;76.10;;;;;;4914732;29;20021;-69
2021/04/25 04:00:09;;;;;;;7.88;3.60;;;6.10;76.40;;;;;;4912595;29;20056;-65
2021/04/25 04:02:35;;;;;;;11.77;4.05;;;6.20;76.10;;;;;;4913456;29;20051;-67
2021/04/25 04:05:00;;;;;;;8.45;3.78;;;6.30;76.30;;;;;;4914579;29;20059;-66
2021/04/25 04:07:26;;;;;;;9.32;4.05;;;6.30;76.20;;;;;;4913947;29;20044;-67
2021/04/25 04:09:52;;;;;;;12.07;3.83;;;6.30;75.40;;;;;;4914385;29;20024;-65
2021/04/25 04:12:18;;;;;;;7.65;3.47;;;6.30;75.20;;;;;;4914897;29;20481;-65
2021/04/25 04:14:44;;;;;;;5.18;3.20;;;6.30;75.10;;;;;;4913701;29;20035;-65
2021/04/25 04:17:09;;;;;;;7.60;3.60;;;6.30;75.10;;;;;;4914848;29;20024;-66
2021/04/25 04:19:35;;;;;;;7.32;3.35;;;6.30;75.10;;;;;;4914540;29;20082;-65
2021/04/25 04:22:00;;;;;;;11.93;3.22;;;6.40;74.90;;;;;;4913793;29;20377;-65
2021/04/25 04:24:26;;;;;;;7.20;3.92;;;6.40;74.90;;;;;;4914622;29;20036;-65
2021/04/25 04:26:51;;;;;;;11.43;4.07;;;6.40;74.80;;;;;;4914043;29;20040;-65
2021/04/25 04:29:17;;;;;;;7.57;2.92;;;6.40;74.60;;;;;;4913411;29;20115;-66
2021/04/25 04:31:42;;;;;;;6.47;2.92;;;6.30;74.60;;;;;;4914461;29;20106;-67
2021/04/25 04:34:08;;;;;;;10.68;2.88;;;6.40;74.70;;;;;;4913058;29;20032;-66
2021/04/25 04:36:33;;;;;;;9.38;3.42;;;6.40;74.60;;;;;;4913903;29;20032;-67
2021/04/25 04:38:59;;;;;;;7.32;3.05;;;6.40;74.40;;;;;;4914129;29;20563;-66
2021/04/25 04:41:24;;;;;;;7.45;2.83;;;6.40;74.50;;;;;;4914469;29;20469;-66
2021/04/25 04:43:50;;;;;;;8.80;3.30;;;6.40;74.40;;;;;;4913556;29;20141;-68
2021/04/25 04:46:16;;;;;;;7.50;3.03;;;6.40;74.40;;;;;;4914365;29;20091;-66
2021/04/25 04:48:41;;;;;;;7.43;2.53;;;6.50;74.20;;;;;;4914157;29;20119;-66
2021/04/25 04:51:07;;;;;;;7.20;2.42;;;6.40;72.80;;;;;;4913565;29;20036;-66
2021/04/25 04:53:32;;;;;;;7.70;2.70;;;6.40;72.90;;;;;;4914192;29;20036;-66
2021/04/25 04:55:58;;;;;;;11.38;3.13;;;6.40;72.60;;;;;;4914036;29;20111;-66
2021/04/25 04:58:23;;;;;;;6.10;2.60;;;6.40;72.80;;;;;;4912110;29;20103;-66
2021/04/25 05:00:49;;;;;;;9.90;2.85;;;6.40;73.00;;;;;;4912641;29;20032;-65
2021/04/25 05:03:15;;;;;;;8.32;3.28;;;6.40;72.40;;;;;;4914300;29;20063;-66
2021/04/25 05:05:41;;;;;;;6.95;2.08;;;6.50;72.60;;;;;;4912137;29;20020;-67
2021/04/25 05:08:06;;;;;;;6.40;2.55;;;6.60;72.10;;;;;;4913996;29;20114;-65
2021/04/25 05:10:32;;;;;;;11.07;2.35;;;6.60;71.70;;;;;;4913642;29;20099;-66
2021/04/25 05:12:57;;;;;;;4.90;2.20;;;6.50;71.60;;;;;;4913883;29;20042;-65
2021/04/25 05:15:23;;;;;;;7.95;2.85;;;6.60;71.90;;;;;;4914177;29;20020;-65
2021/04/25 05:17:48;;;;;;;6.50;2.47;;;6.60;71.80;;;;;;4913294;29;20028;-65
2021/04/25 05:20:14;;;;;;;7.75;2.60;;;6.60;71.90;;;;;;4914492;29;20354;-65
2021/04/25 05:22:40;;;;;;;10.25;2.47;;;6.70;71.80;;;;;;4913970;29;20396;-67
2021/04/25 05:25:08;;;;;;;9.10;2.83;;;6.70;71.40;;;;;;4913426;29;20526;-66
2021/04/25 05:27:33;;;;;;;6.78;2.92;;;6.70;71.30;;;;;;4912559;29;20064;-66
2021/04/25 05:29:59;;;;;;;6.70;2.47;;;6.70;71.10;;;;;;4913748;29;20355;-71
2021/04/25 05:32:24;;;;;;;9.05;3.70;;;6.70;70.50;;;;;;4913311;29;20028;-67
2021/04/25 05:34:50;;;;;;;7.28;2.38;;;6.70;70.60;;;;;;4913723;29;20064;-67
2021/04/25 05:37:15;;;;;;;8.40;2.60;;;6.70;70.20;;;;;;4914067;29;20366;-66
2021/04/25 05:39:41;;;;;;;8.32;3.03;;;6.70;70.30;;;;;;4913180;29;20040;-68
2021/04/25 05:42:07;;;;;;;11.00;3.00;;;6.70;70.30;;;;;;4917221;29;20051;-65
2021/04/25 05:44:32;;;;;;;6.07;2.83;;;6.70;70.50;;;;;;4916160;29;20163;-67
2021/04/25 05:46:58;;;;;;;8.10;2.53;;;6.80;70.60;;;;;;4916225;29;20024;-67
2021/04/25 05:49:24;;;;;;;9.82;2.55;;;6.80;70.60;;;;;;4917117;29;20036;-66
2021/04/25 05:51:50;;;;;;;8.35;2.63;;;6.90;70.50;;;;;;4916779;29;20385;-67
2021/04/25 05:54:15;;;;;;;10.13;3.22;;;6.90;70.40;;;;;;4916645;29;20025;-68
2021/04/25 05:56:41;;;;;;;7.20;2.50;;;7.00;70.60;;;;;;4915622;29;20523;-68
2021/04/25 05:59:07;;;;;;;7.13;2.88;;;7.00;70.20;;;;;;4916697;29;20497;-67
2021/04/25 06:01:33;;;;;;;7.50;2.90;;;7.10;70.20;;;;;;4916280;29;20035;-68
2021/04/25 06:03:58;;;;;;;12.30;3.00;;;7.10;69.80;;;;;;4916639;29;20032;-66
2021/04/25 06:06:24;;;;;;;9.30;3.30;;;7.00;69.50;;;;;;4916816;29;20042;-66
2021/04/25 06:08:50;;;;;;;7.78;3.00;;;7.00;69.40;;;;;;4915652;29;20032;-66
2021/04/25 06:11:15;;;;;;;7.93;3.03;;;7.00;69.40;;;;;;4916875;29;20030;-66
2021/04/25 06:13:41;;;;;;;10.23;2.90;;;6.90;69.70;;;;;;4915113;29;20095;-66
2021/04/25 06:16:06;;;;;;;11.02;6.07;;;7.10;70.40;;;;;;4915331;29;20031;-66
2021/04/25 06:18:32;;;;;;;7.18;2.58;;;7.20;70.10;;;;;;4914675;29;20465;-66
2021/04/25 06:20:58;;;;;;;8.43;2.50;;;7.30;69.40;;;;;;4915044;29;20024;-66
2021/04/25 06:23:24;;;;;;;13.52;3.78;;;7.40;69.50;;;;;;4915452;29;20028;-66
2021/04/25 06:25:49;;;;;;;7.85;2.33;;;7.50;69.30;;;;;;4914863;29;20024;-66
2021/04/25 06:28:15;;;;;;;8.68;2.80;;;7.60;68.10;;;;;;4914672;29;20043;-66
2021/04/25 06:30:41;;;;;;;8.73;2.28;;;7.50;67.50;;;;;;4915458;29;20020;-65
2021/04/25 06:33:07;;;;;;;6.68;1.95;;;7.50;67.40;;;;;;4914956;29;20485;-65
2021/04/25 06:35:32;;;;;;;10.65;2.47;;;7.40;67.60;;;;;;4914567;29;20469;-65
2021/04/25 06:37:58;;;;;;;6.90;2.28;;;7.40;67.90;;;;;;4915295;29;20036;-67
2021/04/25 06:40:24;;;;;;;7.43;2.30;;;7.40;68.10;;;;;;4916098;29;20460;-67
2021/04/25 06:42:49;;;;;;;10.00;2.53;;;7.40;68.00;;;;;;4915168;29;20380;-68
2021/04/25 06:45:17;;;;;;;8.30;2.30;;;7.40;68.20;;;;;;4916355;29;20024;-65
2021/04/25 06:47:43;;;;;;;13.57;2.20;;;7.40;68.10;;;;;;4915859;29;20039;-66
2021/04/25 06:50:12;;;;;;;10.55;2.45;;;7.40;67.60;;;;;;4914067;29;20099;-66
2021/04/25 06:52:46;;;;;;;9.13;2.10;;;7.40;67.70;;;;;;4914116;29;20115;-66
2021/04/25 06:55:15;;;;;;;11.70;3.08;;;7.40;67.50;;;;;;4916036;29;20024;-68
2021/04/25 06:57:45;;;;;;;15.07;2.42;;;7.40;67.40;;;;;;4915221;29;20032;-66
2021/04/25 07:00:11;;;;;;;5.47;1.73;;;7.40;67.60;;;;;;4914575;29;20044;-65
2021/04/25 07:02:37;;;;;;;8.60;2.30;;;7.50;67.70;;;;;;4915826;29;20103;-69
2021/04/25 07:05:04;;;;;;;10.57;2.17;;;7.60;67.50;;;;;;4915007;29;20429;-70
2021/04/25 07:07:30;;;;;;;6.45;1.67;;;7.60;66.90;;;;;;4915612;29;20043;-66
2021/04/25 07:09:58;;;;;;;10.32;2.30;;;7.60;66.90;;;;;;4915232;29;20022;-68
2021/04/25 07:12:24;;;;;;;7.38;1.90;;;7.70;67.00;;;;;;4915713;29;20032;-67
2021/04/25 07:14:50;;;;;;;8.63;3.03;;;7.80;67.10;;;;;;4915084;29;20042;-69
2021/04/25 07:17:15;;;;;;;7.68;1.95;;;7.90;66.90;;;;;;4915015;29;20056;-70
2021/04/25 07:19:41;;;;;;;9.73;2.97;;;8.00;66.40;;;;;;4915352;29;20582;-70
2021/04/25 07:22:07;;;;;;;13.75;2.35;;;7.90;65.70;;;;;;4915427;29;20024;-68
2021/04/25 07:24:32;;;;;;;6.38;1.77;;;7.90;66.20;;;;;;4914864;29;20330;-68
2021/04/25 07:26:58;;;;;;;7.60;1.80;;;8.00;66.30;;;;;;4913903;29;20028;-69
2021/04/25 07:29:24;;;;;;;8.88;2.08;;;8.00;65.70;;;;;;4915050;29;20028;-67
2021/04/25 07:31:49;;;;;;;3.17;1.42;;;8.00;65.70;;;;;;4914268;29;20024;-67
2021/04/25 07:34:15;;;;;;;11.40;3.85;;;8.10;65.70;;;;;;4914460;29;20029;-67
2021/04/25 07:36:41;;;;;;;10.63;3.20;;;8.10;65.70;;;;;;4915109;29;20131;-67
2021/04/25 07:39:06;;;;;;;7.97;1.83;;;8.10;65.00;;;;;;4914284;29;20079;-67
2021/04/25 07:41:33;;;;;;;7.03;2.35;;;8.10;66.20;;;;;;4909315;29;20036;-67
2021/04/25 07:43:58;;;;;;;10.63;2.03;;;8.20;66.60;;;;;;4913212;29;20035;-69
2021/04/25 07:46:24;;;;;;;10.02;1.88;;;8.20;66.80;;;;;;4913778;29;20025;-67
2021/04/25 07:48:50;;;;;;;7.70;2.33;;;8.40;66.40;;;;;;4912769;29;20460;-68
2021/04/25 07:51:16;;;;;;;8.13;1.80;;;8.60;65.80;;;;;;4910698;29;20020;-68
2021/04/25 07:53:41;;;;;;;7.10;1.90;;;8.70;64.50;;;;;;4898261;29;20115;-67
2021/04/25 07:56:07;;;;;;;10.68;2.30;;;8.80;64.30;;;;;;4914228;29;20032;-68
2021/04/25 07:58:33;;;;;;;8.98;1.80;;;8.70;63.90;;;;;;4913183;29;20051;-68
2021/04/25 08:00:59;;;;;;;5.30;1.83;;;8.70;64.10;;;;;;4908330;29;20886;-68
2021/04/25 08:03:25;;;;;;;10.15;1.75;;;8.60;64.40;;;;;;4906681;29;20069;-70
2021/04/25 08:05:50;;;;;;;8.30;2.00;;;8.60;65.20;;;;;;4912122;29;20493;-68
2021/04/25 08:08:16;;;;;;;7.65;1.73;;;8.60;64.90;;;;;;4898610;29;20111;-67
2021/04/25 08:10:42;;;;;;;12.93;2.03;;;8.60;65.10;;;;;;4909563;29;20054;-66
2021/04/25 08:13:08;;;;;;;12.48;2.10;;;8.70;65.10;;;;;;4913998;29;20043;-66
2021/04/25 08:15:34;;;;;;;11.65;2.15;;;8.70;65.10;;;;;;4900343;29;20027;-65
2021/04/25 08:18:01;;;;;;;5.82;1.50;;;8.70;64.00;;;;;;4896127;29;20410;-66
2021/04/25 08:20:26;;;;;;;10.57;2.10;;;8.80;64.10;;;;;;4908213;29;20551;-66
2021/04/25 08:22:52;;;;;;;6.97;1.80;;;8.80;64.50;;;;;;4913529;29;20048;-66
2021/04/25 08:25:17;;;;;;;3.13;1.40;;;8.80;63.40;;;;;;4914329;29;20106;-65
2021/04/25 08:27:44;;;;;;;6.10;2.08;;;9.00;63.90;;;;;;4912053;29;20079;-66
2021/04/25 08:30:10;;;;;;;15.63;2.20;;;9.10;63.30;;;;;;4913450;29;20024;-65
2021/04/25 08:32:36;;;;;;;10.32;2.63;;;9.30;61.80;;;;;;4895747;29;20044;-65
2021/04/25 08:35:04;;;;;;;12.90;2.78;;;9.30;61.60;;;;;;4896351;29;20033;-66
2021/04/25 08:37:29;;;;;;;11.63;2.10;;;9.30;61.80;;;;;;4914130;29;20058;-66
2021/04/25 08:39:55;;;;;;;7.75;1.70;;;9.40;61.50;;;;;;4912680;29;20024;-67
2021/04/25 08:42:20;;;;;;;7.25;2.05;;;9.40;61.00;;;;;;4912706;29;20024;-66
2021/04/25 08:44:46;;;;;;;8.57;2.15;;;9.30;62.30;;;;;;4913939;29;20433;-69
2021/04/25 08:47:13;;;;;;;11.98;2.10;;;9.50;61.80;;;;;;4914054;29;20028;-66
2021/04/25 08:49:39;;;;;;;7.40;2.05;;;9.60;61.80;;;;;;4912900;29;20056;-69
2021/04/25 08:52:06;;;;;;;8.55;1.73;;;9.80;61.20;;;;;;4912950;29;20038;-69
2021/04/25 08:54:32;;;;;;;7.15;1.77;;;9.80;60.50;;;;;;4911759;29;20103;-65
2021/04/25 08:56:58;;;;;;;8.48;1.98;;;9.90;60.40;;;;;;4911891;29;20135;-67
2021/04/25 08:59:23;;;;;;;8.35;2.03;;;10.00;60.20;;;;;;4913138;29;20103;-66
2021/04/25 09:01:49;;;;;;;6.88;1.90;;;10.10;59.70;;;;;;4913534;29;20043;-69
2021/04/25 09:04:14;;;;;;;6.00;1.92;;;10.30;60.00;;;;;;4913409;29;20068;-67
2021/04/25 09:07:03;;;;;;;7.28;2.10;;;10.60;58.80;;;;;;4913802;29;20024;-66
2021/04/25 09:09:51;;;;;;;9.35;2.17;;;10.60;57.60;;;;;;4913747;29;20040;-67
2021/04/25 09:12:30;;;;;;;12.20;1.92;;;10.30;58.10;;;;;;4913416;29;20088;-67
2021/04/25 09:14:55;;;;;;;6.03;1.77;;;10.30;58.70;;;;;;4912135;29;20032;-68
2021/04/25 09:17:21;;;;;;;7.43;2.10;;;10.30;58.80;;;;;;4916974;29;20036;-68
2021/04/25 09:19:54;;;;;;;8.15;1.83;;;10.40;59.30;;;;;;4917032;29;20377;-70
2021/04/25 09:22:21;;;;;;;5.32;2.20;;;10.50;57.60;;;;;;4917491;29;20032;-67
2021/04/25 09:24:47;;;;;;;7.70;1.48;;;10.50;58.70;;;;;;4915659;29;20545;-67
2021/04/25 09:27:27;;;;;;;7.43;2.58;;;10.60;58.20;;;;;;4916714;29;20493;-67
2021/04/25 09:29:55;;;;;;;6.25;2.40;;;10.60;57.70;;;;;;4915586;29;20123;-70
2021/04/25 09:32:23;;;;;;;7.05;1.67;;;10.80;57.90;;;;;;4915759;29;20496;-71
2021/04/25 09:34:50;;;;;;;10.13;2.33;;;10.80;56.50;;;;;;4916409;29;20038;-66
2021/04/25 09:37:20;;;;;;;8.77;2.13;;;10.90;57.00;;;;;;4916294;29;20024;-69
2021/04/25 09:40:05;;;;;;;6.25;1.77;;;10.90;56.50;;;;;;4913755;29;20374;-66
2021/04/25 09:42:31;;;;;;;5.32;1.60;;;10.90;56.40;;;;;;4897855;29;20075;-66
2021/04/25 09:44:57;;;;;;;7.95;2.35;;;10.70;56.80;;;;;;4907518;29;20527;-67
2021/04/25 09:47:32;;;;;;;5.50;1.70;;;10.70;56.70;;;;;;4916074;29;20047;-66
2021/04/25 09:50:00;;;;;;;6.10;1.88;;;10.70;56.80;;;;;;4915363;29;20024;-66
2021/04/25 09:52:36;;;;;;;4.97;1.83;;;10.80;56.40;;;;;;4915909;29;20020;-66
2021/04/25 09:55:16;;;;;;;6.00;1.95;;;11.00;56.70;;;;;;4916278;29;20028;-66
2021/04/25 09:57:42;;;;;;;5.63;1.77;;;11.20;56.20;;;;;;4907094;29;20530;-67
2021/04/25 10:00:09;;;;;;;6.63;1.80;;;11.40;55.40;;;;;;4916221;29;20064;-66
2021/04/25 10:02:54;;;;;;;5.38;2.15;;;11.40;55.10;;;;;;4915071;29;20016;-67
2021/04/25 10:05:20;;;;;;;9.10;2.20;;;11.50;55.30;;;;;;4914767;29;20087;-66
2021/04/25 10:07:45;;;;;;;6.97;1.42;;;11.50;54.70;;;;;;4913380;29;20031;-66
2021/04/25 10:10:13;;;;;;;10.20;2.10;;;11.60;55.10;;;;;;4915856;29;20482;-65
2021/04/25 10:12:39;;;;;;;8.77;2.05;;;11.70;54.70;;;;;;4915676;29;20020;-65
2021/04/25 10:15:05;;;;;;;10.25;1.75;;;11.60;54.80;;;;;;4916506;29;20035;-65
2021/04/25 10:17:31;;;;;;;7.13;2.10;;;11.50;54.40;;;;;;4916271;29;20032;-66
2021/04/25 10:19:57;;;;;;;8.52;1.77;;;11.40;54.60;;;;;;4915771;29;20401;-67
2021/04/25 10:22:24;;;;;;;11.27;2.15;;;11.40;55.00;;;;;;4916376;29;20091;-66
2021/04/25 10:24:49;;;;;;;9.30;2.05;;;11.30;54.80;;;;;;4915577;29;20032;-66
2021/04/25 10:27:15;;;;;;;7.80;2.13;;;11.20;55.10;;;;;;4914325;29;20025;-67
2021/04/25 10:29:53;;;;;;;6.60;1.75;;;11.20;55.20;;;;;;4915369;29;20039;-68
2021/04/25 10:32:20;;;;;;;8.63;2.03;;;11.30;55.30;;;;;;4915821;29;20020;-66
2021/04/25 10:34:48;;;;;;;7.72;2.17;;;11.30;55.40;;;;;;4914477;29;20035;-66
2021/04/25 10:37:14;;;;;;;6.45;2.13;;;11.40;54.70;;;;;;4915445;29;20077;-66
2021/04/25 10:39:52;;;;;;;8.48;1.80;;;11.60;55.60;;;;;;4913746;29;20484;-67
2021/04/25 10:45:05;;;;;;;8.48;2.53;;;12.10;53.80;;;;;;4906035;29;20048;-68
2021/04/25 10:47:33;;;;;;;12.63;2.10;;;12.00;53.70;;;;;;4913951;29;20040;-67
2021/04/25 10:50:14;;;;;;;7.93;2.42;;;11.90;55.30;;;;;;4914061;29;20032;-67
2021/04/25 10:52:41;;;;;;;9.68;2.00;;;12.00;54.10;;;;;;4915778;29;20025;-67
2021/04/25 10:55:13;;;;;;;5.20;1.90;;;11.90;54.10;;;;;;4914297;29;20072;-67
2021/04/25 10:57:50;;;;;;;;;;;11.80;54.50;;;;;;4915763;29;20035;-65
2021/04/25 11:00:40;;;;;;;5.55;2.08;;;11.90;55.00;;;;;;4914995;29;19926;-66
2021/04/25 11:03:13;;;;;;;7.22;2.13;;;12.10;53.60;;;;;;4914388;29;20063;-69
2021/04/25 11:05:41;;;;;;;8.45;2.05;;;12.10;52.60;;;;;;4914228;29;20036;-64
2021/04/25 11:08:29;;;;;;;8.65;1.80;;;12.20;53.20;;;;;;4914823;29;20064;-68
2021/04/25 11:10:58;;;;;;;7.88;1.90;;;12.30;52.70;;;;;;4915044;29;20437;-67
2021/04/25 11:16:04;;;;;;;8.50;2.08;;;12.20;52.30;;;;;;4897410;29;20088;-70
2021/04/25 11:18:59;;;;;;;7.13;1.95;;;12.20;53.10;;;;;;4895278;29;20385;-67
2021/04/25 11:24:22;;;;;;;5.45;1.92;;;12.60;52.30;;;;;;4896363;29;20067;-67
2021/04/25 11:26:53;;;;;;;6.43;1.88;;;12.60;52.50;;;;;;4894508;29;20496;-68
2021/04/25 11:29:21;;;;;;;11.55;2.15;;;12.50;52.50;;;;;;4894211;29;20626;-68
2021/04/25 11:31:54;;;;;;;7.97;1.95;;;12.40;52.10;;;;;;4904348;29;20076;-67
2021/04/25 11:34:26;;;;;;;9.32;2.35;;;12.30;52.50;;;;;;4913992;29;20036;-67
2021/04/25 11:37:16;;;;;;;6.68;2.00;;;12.20;52.90;;;;;;4912522;29;20051;-67
2021/04/25 11:39:53;;;;;;;7.90;2.78;;;12.40;53.50;;;;;;4894884;29;20040;-68
2021/04/25 11:42:27;;;;;;;7.55;2.15;;;12.50;51.70;;;;;;4898631;29;20086;-66
2021/04/25 11:44:53;;;;;;;5.35;1.60;;;12.40;52.10;;;;;;4893393;29;20029;-67
2021/04/25 11:47:19;;;;;;;7.45;2.03;;;12.10;52.00;;;;;;4908092;29;20031;-67
2021/04/25 11:49:47;;;;;;;6.32;2.17;;;11.70;53.30;;;;;;4913042;29;20028;-66
2021/04/25 11:52:28;;;;;;;4.32;1.98;;;11.70;54.10;;;;;;4912759;29;20028;-68
2021/04/25 11:54:57;;;;;;;8.50;1.60;;;11.90;54.80;;;;;;4913001;29;20031;-64
2021/04/25 11:57:24;;;;;;;6.13;1.73;;;12.00;53.80;;;;;;4914129;29;20024;-67
2021/04/25 11:59:58;;;;;;;7.85;2.40;;;12.00;52.00;;;;;;4906533;29;20048;-66
2021/04/25 12:02:29;;;;;;;5.25;1.58;;;11.90;51.80;;;;;;4895826;29;20083;-66
2021/04/25 12:04:58;;;;;;;6.37;1.93;;;12.00;53.30;;;;;;4909079;29;20039;-68
2021/04/25 12:07:38;;;;;;;3.70;1.27;;;12.10;53.40;;;;;;4895813;29;20107;-66
2021/04/25 12:10:19;;;;;;;7.57;1.73;;;12.50;54.00;;;;;;4910370;29;20096;-65
2021/04/25 12:12:59;;;;;;;4.25;2.03;;;12.70;51.90;;;;;;4894695;29;20029;-65
2021/04/25 12:15:25;;;;;;;5.82;2.13;;;12.70;51.00;;;;;;4895631;29;20025;-65
2021/04/25 12:17:56;;;;;;;6.25;1.80;;;12.50;50.90;;;;;;4894658;29;20036;-67
2021/04/25 12:20:23;;;;;;;3.85;1.50;;;12.30;51.70;;;;;;4894412;29;20436;-65
2021/04/25 12:22:49;;;;;;;8.65;1.92;;;12.20;51.00;;;;;;4894126;29;20036;-64
2021/04/25 12:25:16;;;;;;;9.73;1.80;;;12.20;51.20;;;;;;4909672;29;20055;-65
2021/04/25 12:27:49;;;;;;;7.38;1.98;;;12.20;52.60;;;;;;4895328;29;20093;-65
2021/04/25 12:30:17;;;;;;;7.93;2.13;;;12.40;52.90;;;;;;4895600;29;20029;-66
2021/04/25 12:32:42;;;;;;;6.57;2.08;;;12.60;53.00;;;;;;4895013;29;20103;-66
2021/04/25 12:35:08;;;;;;;5.97;2.10;;;12.70;52.50;;;;;;4895410;29;20521;-66
2021/04/25 12:37:43;;;;;;;4.82;1.55;;;12.80;52.10;;;;;;4895481;29;20032;-65
2021/04/25 12:40:32;;;;;;;12.20;3.22;;;12.90;51.50;;;;;;4893504;29;20039;-67
2021/04/25 12:43:15;;;;;;;6.72;1.60;;;12.80;51.10;;;;;;4909398;29;20028;-66
2021/04/25 12:45:44;;;;;;;6.22;2.55;;;12.70;50.90;;;;;;4895579;29;20052;-65
2021/04/25 12:48:23;;;;;;;9.82;2.67;;;12.60;51.50;;;;;;4909979;29;20037;-65
2021/04/25 12:51:19;;;;;;;5.38;1.98;;;12.50;52.10;;;;;;4911188;29;20068;-64
2021/04/25 12:53:58;;;;;;;4.10;2.47;;;12.60;52.70;;;;;;4912835;29;20017;-65
2021/04/25 12:56:43;;;;;;;6.15;1.85;;;12.70;52.10;;;;;;4913807;29;20035;-67
2021/04/25 12:59:26;;;;;;;8.90;1.90;;;12.80;52.10;;;;;;4898985;29;20048;-65
2021/04/25 13:02:15;;;;;;;6.65;2.85;;;12.80;50.90;;;;;;4912571;29;20037;-65